Accueil
METAR-TAF:

METAR-TAF

Aéroports :

Aéroport de Bratsk

Bratsk, Russie

latitude: 56-22-15N, longitude: 101-41-55E, altitude: 490 m

Observation

Le bulletin a été fait il y a 35 minutes, à 10:30 UTC
Vent 10 kt de sud/sud-est, variant entre est/sud-est et sud/sud-ouest
Température 0°C
Humidité 29%
Pression 1016 hPa
Visibilité 10 km ou plus

METAR: UIBB 181030Z 15005MPS 110V200 9999 NSC M00/M16 Q1016 R12/912060 NOSIG RMK QFE719/0958

Heure: 19:05 (11:05 UTC)

Prévision

Le bulletin a été fait il y a 3 heures et 5 minutes, à 08:00 UTC
Prévision valable du 18 à 09 UTC au 19 à 09 UTC
Vent 10 kt de sud/sud-est avec des rafales jusqu'à 19 kt
Visibilité 10 km ou plus

TAF: UIBB 180800Z 1809/1909 16005G10MPS 9999 NSC

Observations et prévisions météorologiques de plus de 4000 aéroports (messages METAR et TAF).

Les stations disponibles sont représentées par des disques jaunes et rouges sur la carte.

Passer la souris dessus pour voir le nom de la station.

Cliquer dessus pour voir les observations et prévisions météorologiques.

Pour changer de carte: cliquez sur les boutons verts avec une croix noire pour zoomer, sur le bouton vert avec un tiret pour effectuer un zoom arrière, ou sur les flèches vertes pour les cartes adjacentes.


METAR-TAF: